sensor_id;sensor_type;location;lat;lon;timestamp;P1;durP1;ratioP1;P2;durP2;ratioP2
69087;SDS011;56190;43.562;5.036;2022-07-29T00:02:10;1.48;;;1.15;;
69087;SDS011;56190;43.562;5.036;2022-07-29T00:04:36;3.50;;;1.30;;
69087;SDS011;56190;43.562;5.036;2022-07-29T00:07:02;2.42;;;1.20;;
69087;SDS011;56190;43.562;5.036;2022-07-29T00:09:27;2.88;;;1.30;;
69087;SDS011;56190;43.562;5.036;2022-07-29T00:11:52;2.70;;;1.30;;
69087;SDS011;56190;43.562;5.036;2022-07-29T00:14:18;2.88;;;1.10;;
69087;SDS011;56190;43.562;5.036;2022-07-29T00:16:44;2.35;;;1.17;;
69087;SDS011;56190;43.562;5.036;2022-07-29T00:19:09;2.83;;;1.30;;
69087;SDS011;56190;43.562;5.036;2022-07-29T00:21:34;1.50;;;1.10;;
69087;SDS011;56190;43.562;5.036;2022-07-29T00:23:59;3.60;;;1.30;;
69087;SDS011;56190;43.562;5.036;2022-07-29T00:26:25;2.35;;;1.20;;
69087;SDS011;56190;43.562;5.036;2022-07-29T00:28:52;2.05;;;1.30;;
69087;SDS011;56190;43.562;5.036;2022-07-29T00:31:17;1.95;;;1.42;;
69087;SDS011;56190;43.562;5.036;2022-07-29T00:33:43;3.92;;;1.58;;
69087;SDS011;56190;43.562;5.036;2022-07-29T00:36:08;3.17;;;1.70;;
69087;SDS011;56190;43.562;5.036;2022-07-29T00:38:33;2.85;;;1.60;;
69087;SDS011;56190;43.562;5.036;2022-07-29T00:40:58;4.65;;;1.60;;
69087;SDS011;56190;43.562;5.036;2022-07-29T00:43:24;2.83;;;1.42;;
69087;SDS011;56190;43.562;5.036;2022-07-29T00:45:49;3.15;;;1.58;;
69087;SDS011;56190;43.562;5.036;2022-07-29T00:48:14;3.13;;;1.45;;
69087;SDS011;56190;43.562;5.036;2022-07-29T00:50:39;3.80;;;1.30;;
69087;SDS011;56190;43.562;5.036;2022-07-29T00:53:05;2.78;;;1.50;;
69087;SDS011;56190;43.562;5.036;2022-07-29T00:55:31;2.50;;;1.50;;
69087;SDS011;56190;43.562;5.036;2022-07-29T00:57:57;2.53;;;1.60;;
69087;SDS011;56190;43.562;5.036;2022-07-29T01:00:24;2.42;;;1.70;;
69087;SDS011;56190;43.562;5.036;2022-07-29T01:02:49;3.65;;;1.70;;
69087;SDS011;56190;43.562;5.036;2022-07-29T01:05:16;3.72;;;1.73;;
69087;SDS011;56190;43.562;5.036;2022-07-29T01:07:42;4.00;;;1.80;;
69087;SDS011;56190;43.562;5.036;2022-07-29T01:10:08;2.15;;;1.50;;
69087;SDS011;56190;43.562;5.036;2022-07-29T01:12:34;4.30;;;2.00;;
69087;SDS011;56190;43.562;5.036;2022-07-29T01:15:01;2.15;;;1.50;;
69087;SDS011;56190;43.562;5.036;2022-07-29T01:17:33;5.28;;;1.75;;
69087;SDS011;56190;43.562;5.036;2022-07-29T01:23:01;2.03;;;1.58;;
69087;SDS011;56190;43.562;5.036;2022-07-29T01:30:56;1.40;;;1.20;;
69087;SDS011;56190;43.562;5.036;2022-07-29T01:33:22;2.22;;;1.60;;
69087;SDS011;56190;43.562;5.036;2022-07-29T01:36:07;3.03;;;1.52;;
69087;SDS011;56190;43.562;5.036;2022-07-29T01:38:35;2.30;;;1.45;;
69087;SDS011;56190;43.562;5.036;2022-07-29T01:41:05;2.80;;;1.50;;
69087;SDS011;56190;43.562;5.036;2022-07-29T01:43:40;1.85;;;1.30;;
69087;SDS011;56190;43.562;5.036;2022-07-29T01:46:09;2.75;;;1.50;;
69087;SDS011;56190;43.562;5.036;2022-07-29T01:51:14;2.55;;;1.58;;
69087;SDS011;56190;43.562;5.036;2022-07-29T01:54:28;3.85;;;1.60;;
69087;SDS011;56190;43.562;5.036;2022-07-29T01:56:27;2.67;;;1.63;;
69087;SDS011;56190;43.562;5.036;2022-07-29T01:58:54;2.45;;;1.30;;
69087;SDS011;56190;43.562;5.036;2022-07-29T02:01:21;1.60;;;1.40;;
69087;SDS011;56190;43.562;5.036;2022-07-29T02:03:46;1.88;;;1.27;;
69087;SDS011;56190;43.562;5.036;2022-07-29T02:06:13;1.95;;;1.30;;
69087;SDS011;56190;43.562;5.036;2022-07-29T02:08:40;1.58;;;1.15;;
69087;SDS011;56190;43.562;5.036;2022-07-29T02:11:06;2.83;;;1.40;;
69087;SDS011;56190;43.562;5.036;2022-07-29T02:13:34;5.50;;;1.52;;
69087;SDS011;56190;43.562;5.036;2022-07-29T02:16:00;1.35;;;1.10;;
69087;SDS011;56190;43.562;5.036;2022-07-29T02:18:27;2.35;;;1.27;;
69087;SDS011;56190;43.562;5.036;2022-07-29T02:20:53;1.85;;;1.40;;
69087;SDS011;56190;43.562;5.036;2022-07-29T02:23:20;2.47;;;1.35;;
69087;SDS011;56190;43.562;5.036;2022-07-29T02:25:49;2.80;;;1.45;;
69087;SDS011;56190;43.562;5.036;2022-07-29T02:28:16;2.25;;;1.50;;
69087;SDS011;56190;43.562;5.036;2022-07-29T02:30:42;1.60;;;1.23;;
69087;SDS011;56190;43.562;5.036;2022-07-29T02:33:08;2.83;;;1.40;;
69087;SDS011;56190;43.562;5.036;2022-07-29T02:35:35;2.53;;;1.23;;
69087;SDS011;56190;43.562;5.036;2022-07-29T02:38:00;2.47;;;1.35;;
69087;SDS011;56190;43.562;5.036;2022-07-29T02:40:45;3.22;;;1.50;;
69087;SDS011;56190;43.562;5.036;2022-07-29T02:43:10;1.50;;;1.20;;
69087;SDS011;56190;43.562;5.036;2022-07-29T02:45:35;1.98;;;1.20;;
69087;SDS011;56190;43.562;5.036;2022-07-29T02:48:04;3.42;;;1.30;;
69087;SDS011;56190;43.562;5.036;2022-07-29T02:50:35;2.45;;;1.40;;
69087;SDS011;56190;43.562;5.036;2022-07-29T02:53:05;4.00;;;1.55;;
69087;SDS011;56190;43.562;5.036;2022-07-29T02:58:02;1.67;;;1.25;;
69087;SDS011;56190;43.562;5.036;2022-07-29T03:00:29;2.47;;;1.42;;
69087;SDS011;56190;43.562;5.036;2022-07-29T03:02:55;3.22;;;1.58;;
69087;SDS011;56190;43.562;5.036;2022-07-29T03:05:21;3.08;;;1.60;;
69087;SDS011;56190;43.562;5.036;2022-07-29T03:07:49;2.17;;;1.52;;
69087;SDS011;56190;43.562;5.036;2022-07-29T03:10:16;2.50;;;1.48;;
69087;SDS011;56190;43.562;5.036;2022-07-29T03:12:41;2.03;;;1.42;;
69087;SDS011;56190;43.562;5.036;2022-07-29T03:15:07;2.72;;;1.60;;
69087;SDS011;56190;43.562;5.036;2022-07-29T03:17:33;3.40;;;1.38;;
69087;SDS011;56190;43.562;5.036;2022-07-29T03:19:59;6.90;;;2.08;;
69087;SDS011;56190;43.562;5.036;2022-07-29T03:22:24;2.75;;;1.65;;
69087;SDS011;56190;43.562;5.036;2022-07-29T03:24:50;2.67;;;1.80;;
69087;SDS011;56190;43.562;5.036;2022-07-29T03:27:15;7.28;;;1.83;;
69087;SDS011;56190;43.562;5.036;2022-07-29T03:29:40;7.70;;;2.10;;
69087;SDS011;56190;43.562;5.036;2022-07-29T03:32:06;4.97;;;2.22;;
69087;SDS011;56190;43.562;5.036;2022-07-29T03:34:31;2.88;;;1.90;;
69087;SDS011;56190;43.562;5.036;2022-07-29T03:36:56;3.63;;;1.73;;
69087;SDS011;56190;43.562;5.036;2022-07-29T03:39:23;3.78;;;2.40;;
69087;SDS011;56190;43.562;5.036;2022-07-29T03:41:51;3.40;;;1.80;;
69087;SDS011;56190;43.562;5.036;2022-07-29T03:44:17;6.13;;;2.22;;
69087;SDS011;56190;43.562;5.036;2022-07-29T03:46:43;3.60;;;2.20;;
69087;SDS011;56190;43.562;5.036;2022-07-29T03:49:08;4.20;;;1.98;;
69087;SDS011;56190;43.562;5.036;2022-07-29T03:51:35;3.50;;;2.28;;
69087;SDS011;56190;43.562;5.036;2022-07-29T03:54:01;3.33;;;2.35;;
69087;SDS011;56190;43.562;5.036;2022-07-29T03:56:26;4.50;;;2.20;;
69087;SDS011;56190;43.562;5.036;2022-07-29T03:58:52;3.90;;;2.17;;
69087;SDS011;56190;43.562;5.036;2022-07-29T04:01:18;4.47;;;2.17;;
69087;SDS011;56190;43.562;5.036;2022-07-29T04:03:44;4.07;;;2.03;;
69087;SDS011;56190;43.562;5.036;2022-07-29T04:06:12;3.22;;;2.10;;
69087;SDS011;56190;43.562;5.036;2022-07-29T04:08:37;4.15;;;2.20;;
69087;SDS011;56190;43.562;5.036;2022-07-29T04:11:03;3.08;;;2.20;;
69087;SDS011;56190;43.562;5.036;2022-07-29T04:13:29;2.90;;;2.30;;
69087;SDS011;56190;43.562;5.036;2022-07-29T04:15:54;3.50;;;2.17;;
69087;SDS011;56190;43.562;5.036;2022-07-29T04:18:19;4.00;;;2.33;;
69087;SDS011;56190;43.562;5.036;2022-07-29T04:20:45;3.15;;;2.25;;
69087;SDS011;56190;43.562;5.036;2022-07-29T04:23:10;5.05;;;2.75;;
69087;SDS011;56190;43.562;5.036;2022-07-29T04:25:41;8.27;;;5.65;;
69087;SDS011;56190;43.562;5.036;2022-07-29T04:28:07;5.75;;;2.70;;
69087;SDS011;56190;43.562;5.036;2022-07-29T04:30:33;3.78;;;2.90;;
69087;SDS011;56190;43.562;5.036;2022-07-29T04:33:00;4.68;;;2.50;;
69087;SDS011;56190;43.562;5.036;2022-07-29T04:35:26;3.33;;;2.20;;
69087;SDS011;56190;43.562;5.036;2022-07-29T04:37:51;3.83;;;2.50;;
69087;SDS011;56190;43.562;5.036;2022-07-29T04:40:16;13.00;;;3.08;;
69087;SDS011;56190;43.562;5.036;2022-07-29T04:42:41;5.72;;;2.53;;
69087;SDS011;56190;43.562;5.036;2022-07-29T04:45:07;4.07;;;2.42;;
69087;SDS011;56190;43.562;5.036;2022-07-29T04:47:32;3.17;;;2.60;;
69087;SDS011;56190;43.562;5.036;2022-07-29T04:49:57;5.45;;;2.78;;
69087;SDS011;56190;43.562;5.036;2022-07-29T04:52:23;4.20;;;2.20;;
69087;SDS011;56190;43.562;5.036;2022-07-29T04:54:48;6.00;;;2.20;;
69087;SDS011;56190;43.562;5.036;2022-07-29T04:57:14;4.85;;;2.35;;
69087;SDS011;56190;43.562;5.036;2022-07-29T04:59:39;3.95;;;2.28;;
69087;SDS011;56190;43.562;5.036;2022-07-29T05:02:04;5.88;;;2.70;;
69087;SDS011;56190;43.562;5.036;2022-07-29T05:04:30;5.28;;;2.88;;
69087;SDS011;56190;43.562;5.036;2022-07-29T05:06:55;5.35;;;2.40;;
69087;SDS011;56190;43.562;5.036;2022-07-29T05:09:20;3.67;;;2.33;;
69087;SDS011;56190;43.562;5.036;2022-07-29T05:11:45;6.40;;;2.22;;
69087;SDS011;56190;43.562;5.036;2022-07-29T05:14:11;5.35;;;2.10;;
69087;SDS011;56190;43.562;5.036;2022-07-29T05:16:36;2.97;;;2.20;;
69087;SDS011;56190;43.562;5.036;2022-07-29T05:19:01;4.45;;;2.25;;
69087;SDS011;56190;43.562;5.036;2022-07-29T05:21:26;5.75;;;2.40;;
69087;SDS011;56190;43.562;5.036;2022-07-29T05:23:52;6.10;;;2.58;;
69087;SDS011;56190;43.562;5.036;2022-07-29T05:26:17;4.68;;;2.13;;
69087;SDS011;56190;43.562;5.036;2022-07-29T05:28:42;4.97;;;2.20;;
69087;SDS011;56190;43.562;5.036;2022-07-29T05:31:07;3.35;;;2.25;;
69087;SDS011;56190;43.562;5.036;2022-07-29T05:33:33;3.60;;;2.17;;
69087;SDS011;56190;43.562;5.036;2022-07-29T05:35:58;5.28;;;2.10;;
69087;SDS011;56190;43.562;5.036;2022-07-29T05:38:23;4.00;;;2.17;;
69087;SDS011;56190;43.562;5.036;2022-07-29T05:40:49;4.15;;;2.22;;
69087;SDS011;56190;43.562;5.036;2022-07-29T05:43:14;3.85;;;2.00;;
69087;SDS011;56190;43.562;5.036;2022-07-29T05:45:39;5.93;;;2.50;;
69087;SDS011;56190;43.562;5.036;2022-07-29T05:48:04;3.65;;;2.17;;
69087;SDS011;56190;43.562;5.036;2022-07-29T05:50:30;3.13;;;1.98;;
69087;SDS011;56190;43.562;5.036;2022-07-29T05:52:55;3.75;;;1.90;;
69087;SDS011;56190;43.562;5.036;2022-07-29T05:55:20;6.25;;;2.50;;
69087;SDS011;56190;43.562;5.036;2022-07-29T05:57:45;2.42;;;2.20;;
69087;SDS011;56190;43.562;5.036;2022-07-29T06:00:11;3.83;;;2.00;;
69087;SDS011;56190;43.562;5.036;2022-07-29T06:02:36;5.07;;;2.65;;
69087;SDS011;56190;43.562;5.036;2022-07-29T06:05:02;5.57;;;2.40;;
69087;SDS011;56190;43.562;5.036;2022-07-29T06:07:27;5.38;;;2.15;;
69087;SDS011;56190;43.562;5.036;2022-07-29T06:09:52;4.68;;;2.13;;
69087;SDS011;56190;43.562;5.036;2022-07-29T06:12:18;4.80;;;2.08;;
69087;SDS011;56190;43.562;5.036;2022-07-29T06:14:44;2.97;;;1.90;;
69087;SDS011;56190;43.562;5.036;2022-07-29T06:17:10;4.70;;;1.95;;
69087;SDS011;56190;43.562;5.036;2022-07-29T06:19:36;3.60;;;1.80;;
69087;SDS011;56190;43.562;5.036;2022-07-29T06:22:01;4.07;;;1.88;;
69087;SDS011;56190;43.562;5.036;2022-07-29T06:24:27;5.53;;;2.20;;
69087;SDS011;56190;43.562;5.036;2022-07-29T06:26:52;4.38;;;2.50;;
69087;SDS011;56190;43.562;5.036;2022-07-29T06:29:17;4.75;;;2.15;;
69087;SDS011;56190;43.562;5.036;2022-07-29T06:31:43;4.55;;;1.98;;
69087;SDS011;56190;43.562;5.036;2022-07-29T06:34:08;4.07;;;2.20;;
69087;SDS011;56190;43.562;5.036;2022-07-29T06:36:34;5.45;;;2.22;;
69087;SDS011;56190;43.562;5.036;2022-07-29T06:38:59;4.63;;;2.05;;
69087;SDS011;56190;43.562;5.036;2022-07-29T06:41:25;5.13;;;2.15;;
69087;SDS011;56190;43.562;5.036;2022-07-29T06:43:51;6.03;;;2.22;;
69087;SDS011;56190;43.562;5.036;2022-07-29T06:46:16;5.22;;;2.28;;
69087;SDS011;56190;43.562;5.036;2022-07-29T06:48:45;5.13;;;2.38;;
69087;SDS011;56190;43.562;5.036;2022-07-29T06:51:10;4.22;;;2.28;;
69087;SDS011;56190;43.562;5.036;2022-07-29T06:53:38;4.72;;;2.40;;
69087;SDS011;56190;43.562;5.036;2022-07-29T06:56:04;8.15;;;2.17;;
69087;SDS011;56190;43.562;5.036;2022-07-29T06:58:30;3.72;;;2.10;;
69087;SDS011;56190;43.562;5.036;2022-07-29T07:01:00;6.75;;;2.33;;
69087;SDS011;56190;43.562;5.036;2022-07-29T07:03:25;6.43;;;2.45;;
69087;SDS011;56190;43.562;5.036;2022-07-29T07:05:51;8.52;;;2.85;;
69087;SDS011;56190;43.562;5.036;2022-07-29T07:08:17;5.25;;;2.35;;
69087;SDS011;56190;43.562;5.036;2022-07-29T07:10:42;3.90;;;2.50;;
69087;SDS011;56190;43.562;5.036;2022-07-29T07:13:08;8.77;;;3.40;;
69087;SDS011;56190;43.562;5.036;2022-07-29T07:15:33;5.90;;;2.60;;
69087;SDS011;56190;43.562;5.036;2022-07-29T07:18:00;6.13;;;3.10;;
69087;SDS011;56190;43.562;5.036;2022-07-29T07:20:25;6.15;;;2.90;;
69087;SDS011;56190;43.562;5.036;2022-07-29T07:22:50;11.00;;;3.22;;
69087;SDS011;56190;43.562;5.036;2022-07-29T07:25:16;5.22;;;3.13;;
69087;SDS011;56190;43.562;5.036;2022-07-29T07:27:42;7.63;;;3.20;;
69087;SDS011;56190;43.562;5.036;2022-07-29T07:30:08;4.72;;;2.97;;
69087;SDS011;56190;43.562;5.036;2022-07-29T07:32:33;4.85;;;2.53;;
69087;SDS011;56190;43.562;5.036;2022-07-29T07:34:59;8.18;;;2.95;;
69087;SDS011;56190;43.562;5.036;2022-07-29T07:37:24;3.70;;;3.03;;
69087;SDS011;56190;43.562;5.036;2022-07-29T07:39:50;5.53;;;3.10;;
69087;SDS011;56190;43.562;5.036;2022-07-29T07:42:15;5.13;;;3.38;;
69087;SDS011;56190;43.562;5.036;2022-07-29T07:44:40;5.35;;;2.92;;
69087;SDS011;56190;43.562;5.036;2022-07-29T07:47:06;5.18;;;2.97;;
69087;SDS011;56190;43.562;5.036;2022-07-29T07:49:31;4.72;;;3.00;;
69087;SDS011;56190;43.562;5.036;2022-07-29T07:51:56;6.25;;;3.03;;
69087;SDS011;56190;43.562;5.036;2022-07-29T07:54:21;6.32;;;2.92;;
69087;SDS011;56190;43.562;5.036;2022-07-29T07:56:47;5.40;;;2.60;;
69087;SDS011;56190;43.562;5.036;2022-07-29T07:59:15;3.53;;;2.65;;
69087;SDS011;56190;43.562;5.036;2022-07-29T08:01:40;4.32;;;2.75;;
69087;SDS011;56190;43.562;5.036;2022-07-29T08:04:06;8.25;;;2.90;;
69087;SDS011;56190;43.562;5.036;2022-07-29T08:06:32;6.28;;;2.97;;
69087;SDS011;56190;43.562;5.036;2022-07-29T08:08:59;6.22;;;2.72;;
69087;SDS011;56190;43.562;5.036;2022-07-29T08:11:25;3.75;;;2.50;;
69087;SDS011;56190;43.562;5.036;2022-07-29T08:13:50;6.05;;;2.40;;
69087;SDS011;56190;43.562;5.036;2022-07-29T08:16:15;4.40;;;2.30;;
69087;SDS011;56190;43.562;5.036;2022-07-29T08:18:41;4.05;;;1.90;;
69087;SDS011;56190;43.562;5.036;2022-07-29T08:21:06;4.47;;;2.05;;
69087;SDS011;56190;43.562;5.036;2022-07-29T08:23:31;4.68;;;2.30;;
69087;SDS011;56190;43.562;5.036;2022-07-29T08:26:04;4.65;;;2.10;;
69087;SDS011;56190;43.562;5.036;2022-07-29T08:28:29;5.90;;;2.75;;
69087;SDS011;56190;43.562;5.036;2022-07-29T08:30:54;3.88;;;2.60;;
69087;SDS011;56190;43.562;5.036;2022-07-29T08:33:19;5.25;;;2.97;;
69087;SDS011;56190;43.562;5.036;2022-07-29T08:35:45;10.77;;;3.80;;
69087;SDS011;56190;43.562;5.036;2022-07-29T08:38:10;7.85;;;3.17;;
69087;SDS011;56190;43.562;5.036;2022-07-29T08:40:35;4.55;;;2.30;;
69087;SDS011;56190;43.562;5.036;2022-07-29T08:43:04;5.07;;;2.65;;
69087;SDS011;56190;43.562;5.036;2022-07-29T08:45:30;4.55;;;2.33;;
69087;SDS011;56190;43.562;5.036;2022-07-29T08:48:00;3.13;;;2.25;;
69087;SDS011;56190;43.562;5.036;2022-07-29T08:50:25;4.40;;;2.10;;
69087;SDS011;56190;43.562;5.036;2022-07-29T08:52:51;2.22;;;1.73;;
69087;SDS011;56190;43.562;5.036;2022-07-29T08:55:16;6.03;;;2.60;;
69087;SDS011;56190;43.562;5.036;2022-07-29T08:57:42;4.05;;;2.10;;
69087;SDS011;56190;43.562;5.036;2022-07-29T09:00:07;4.95;;;2.20;;
69087;SDS011;56190;43.562;5.036;2022-07-29T09:02:37;5.00;;;2.15;;
69087;SDS011;56190;43.562;5.036;2022-07-29T09:05:04;3.30;;;1.90;;
69087;SDS011;56190;43.562;5.036;2022-07-29T09:07:29;2.55;;;1.90;;
69087;SDS011;56190;43.562;5.036;2022-07-29T09:09:54;4.82;;;2.60;;
69087;SDS011;56190;43.562;5.036;2022-07-29T09:12:21;4.75;;;2.00;;
69087;SDS011;56190;43.562;5.036;2022-07-29T09:14:47;6.20;;;2.33;;
69087;SDS011;56190;43.562;5.036;2022-07-29T09:17:12;4.82;;;2.17;;
69087;SDS011;56190;43.562;5.036;2022-07-29T09:19:41;3.55;;;2.05;;
69087;SDS011;56190;43.562;5.036;2022-07-29T09:22:07;2.63;;;1.98;;
69087;SDS011;56190;43.562;5.036;2022-07-29T09:24:36;4.78;;;2.30;;
69087;SDS011;56190;43.562;5.036;2022-07-29T09:27:09;7.15;;;2.65;;
69087;SDS011;56190;43.562;5.036;2022-07-29T09:29:35;4.88;;;2.25;;
69087;SDS011;56190;43.562;5.036;2022-07-29T09:32:00;6.43;;;2.22;;
69087;SDS011;56190;43.562;5.036;2022-07-29T09:34:28;5.35;;;2.60;;
69087;SDS011;56190;43.562;5.036;2022-07-29T09:36:56;3.90;;;2.20;;
69087;SDS011;56190;43.562;5.036;2022-07-29T09:42:17;5.88;;;2.30;;
69087;SDS011;56190;43.562;5.036;2022-07-29T09:44:52;6.85;;;2.25;;
69087;SDS011;56190;43.562;5.036;2022-07-29T09:47:18;5.93;;;2.85;;
69087;SDS011;56190;43.562;5.036;2022-07-29T09:49:56;5.15;;;2.05;;
69087;SDS011;56190;43.562;5.036;2022-07-29T09:52:23;5.38;;;2.60;;
69087;SDS011;56190;43.562;5.036;2022-07-29T09:54:48;7.38;;;3.13;;
69087;SDS011;56190;43.562;5.036;2022-07-29T09:57:26;7.70;;;2.70;;
69087;SDS011;56190;43.562;5.036;2022-07-29T09:59:55;4.13;;;2.88;;
69087;SDS011;56190;43.562;5.036;2022-07-29T10:02:21;4.93;;;3.08;;
69087;SDS011;56190;43.562;5.036;2022-07-29T10:04:46;6.72;;;2.67;;
69087;SDS011;56190;43.562;5.036;2022-07-29T10:07:11;7.85;;;2.90;;
69087;SDS011;56190;43.562;5.036;2022-07-29T10:09:37;6.15;;;2.90;;
69087;SDS011;56190;43.562;5.036;2022-07-29T10:12:12;5.03;;;2.80;;
69087;SDS011;56190;43.562;5.036;2022-07-29T10:14:41;5.65;;;2.78;;
69087;SDS011;56190;43.562;5.036;2022-07-29T10:17:06;6.70;;;2.65;;
69087;SDS011;56190;43.562;5.036;2022-07-29T10:19:32;5.43;;;2.92;;
69087;SDS011;56190;43.562;5.036;2022-07-29T10:21:58;8.48;;;2.90;;
69087;SDS011;56190;43.562;5.036;2022-07-29T10:24:26;4.65;;;3.05;;
69087;SDS011;56190;43.562;5.036;2022-07-29T10:26:53;5.13;;;3.33;;
69087;SDS011;56190;43.562;5.036;2022-07-29T10:29:19;4.93;;;3.40;;
69087;SDS011;56190;43.562;5.036;2022-07-29T10:31:49;5.32;;;3.25;;
69087;SDS011;56190;43.562;5.036;2022-07-29T10:34:21;7.93;;;3.90;;
69087;SDS011;56190;43.562;5.036;2022-07-29T10:42:19;6.00;;;3.45;;
69087;SDS011;56190;43.562;5.036;2022-07-29T10:44:45;4.95;;;3.30;;
69087;SDS011;56190;43.562;5.036;2022-07-29T10:47:23;5.47;;;3.30;;
69087;SDS011;56190;43.562;5.036;2022-07-29T10:49:56;7.20;;;3.75;;
69087;SDS011;56190;43.562;5.036;2022-07-29T10:52:22;3.78;;;2.95;;
69087;SDS011;56190;43.562;5.036;2022-07-29T10:54:49;5.10;;;3.38;;
69087;SDS011;56190;43.562;5.036;2022-07-29T10:57:19;4.22;;;2.90;;
69087;SDS011;56190;43.562;5.036;2022-07-29T11:00:35;5.00;;;3.17;;
69087;SDS011;56190;43.562;5.036;2022-07-29T11:05:10;5.72;;;3.38;;
69087;SDS011;56190;43.562;5.036;2022-07-29T11:07:37;6.97;;;3.25;;
69087;SDS011;56190;43.562;5.036;2022-07-29T11:15:03;4.65;;;3.28;;
69087;SDS011;56190;43.562;5.036;2022-07-29T11:17:30;4.63;;;3.42;;
69087;SDS011;56190;43.562;5.036;2022-07-29T11:22:59;7.03;;;3.65;;
69087;SDS011;56190;43.562;5.036;2022-07-29T11:25:24;6.93;;;3.78;;
69087;SDS011;56190;43.562;5.036;2022-07-29T11:27:51;8.80;;;4.18;;
69087;SDS011;56190;43.562;5.036;2022-07-29T11:30:17;8.05;;;4.07;;
69087;SDS011;56190;43.562;5.036;2022-07-29T11:32:43;6.53;;;3.92;;
69087;SDS011;56190;43.562;5.036;2022-07-29T11:35:21;7.82;;;3.70;;
69087;SDS011;56190;43.562;5.036;2022-07-29T11:40:32;6.90;;;3.83;;
69087;SDS011;56190;43.562;5.036;2022-07-29T11:42:57;7.18;;;4.05;;
69087;SDS011;56190;43.562;5.036;2022-07-29T11:45:22;4.10;;;3.70;;
69087;SDS011;56190;43.562;5.036;2022-07-29T11:50:26;6.30;;;3.80;;
69087;SDS011;56190;43.562;5.036;2022-07-29T11:52:52;6.57;;;3.65;;
69087;SDS011;56190;43.562;5.036;2022-07-29T11:55:18;6.63;;;3.45;;
69087;SDS011;56190;43.562;5.036;2022-07-29T11:57:53;5.03;;;3.65;;
69087;SDS011;56190;43.562;5.036;2022-07-29T12:00:32;4.30;;;3.00;;
69087;SDS011;56190;43.562;5.036;2022-07-29T12:02:58;6.28;;;3.30;;
69087;SDS011;56190;43.562;5.036;2022-07-29T12:05:33;5.18;;;3.25;;
69087;SDS011;56190;43.562;5.036;2022-07-29T12:08:09;3.40;;;3.10;;
69087;SDS011;56190;43.562;5.036;2022-07-29T12:10:34;4.68;;;2.88;;
69087;SDS011;56190;43.562;5.036;2022-07-29T12:13:00;3.72;;;2.70;;
69087;SDS011;56190;43.562;5.036;2022-07-29T12:15:25;3.60;;;2.90;;
69087;SDS011;56190;43.562;5.036;2022-07-29T12:17:51;4.32;;;2.90;;
69087;SDS011;56190;43.562;5.036;2022-07-29T12:20:26;3.35;;;2.63;;
69087;SDS011;56190;43.562;5.036;2022-07-29T12:22:52;4.03;;;3.15;;
69087;SDS011;56190;43.562;5.036;2022-07-29T12:25:18;5.35;;;3.08;;
69087;SDS011;56190;43.562;5.036;2022-07-29T12:27:44;3.20;;;2.60;;
69087;SDS011;56190;43.562;5.036;2022-07-29T12:30:13;4.38;;;3.13;;
69087;SDS011;56190;43.562;5.036;2022-07-29T12:32:39;5.20;;;2.90;;
69087;SDS011;56190;43.562;5.036;2022-07-29T12:35:12;4.88;;;2.70;;
69087;SDS011;56190;43.562;5.036;2022-07-29T12:37:38;4.13;;;2.97;;
69087;SDS011;56190;43.562;5.036;2022-07-29T12:40:04;3.33;;;2.60;;
69087;SDS011;56190;43.562;5.036;2022-07-29T12:42:30;3.45;;;2.30;;
69087;SDS011;56190;43.562;5.036;2022-07-29T12:44:55;3.17;;;2.30;;
69087;SDS011;56190;43.562;5.036;2022-07-29T12:47:21;4.82;;;2.33;;
69087;SDS011;56190;43.562;5.036;2022-07-29T12:49:46;4.72;;;2.60;;
69087;SDS011;56190;43.562;5.036;2022-07-29T12:52:31;2.28;;;1.75;;
69087;SDS011;56190;43.562;5.036;2022-07-29T12:54:57;5.18;;;1.52;;
69087;SDS011;56190;43.562;5.036;2022-07-29T12:57:22;2.15;;;1.50;;
69087;SDS011;56190;43.562;5.036;2022-07-29T13:00:07;1.60;;;1.50;;
69087;SDS011;56190;43.562;5.036;2022-07-29T13:02:34;1.90;;;1.27;;
69087;SDS011;56190;43.562;5.036;2022-07-29T13:05:00;2.38;;;1.45;;
69087;SDS011;56190;43.562;5.036;2022-07-29T13:07:29;2.13;;;1.60;;
69087;SDS011;56190;43.562;5.036;2022-07-29T13:10:13;2.50;;;1.80;;
69087;SDS011;56190;43.562;5.036;2022-07-29T13:12:39;2.47;;;2.10;;
69087;SDS011;56190;43.562;5.036;2022-07-29T13:15:24;3.47;;;1.80;;
69087;SDS011;56190;43.562;5.036;2022-07-29T13:17:49;2.25;;;1.52;;
69087;SDS011;56190;43.562;5.036;2022-07-29T13:20:15;2.13;;;1.38;;
69087;SDS011;56190;43.562;5.036;2022-07-29T13:22:41;1.95;;;1.20;;
69087;SDS011;56190;43.562;5.036;2022-07-29T13:25:07;1.33;;;1.10;;
69087;SDS011;56190;43.562;5.036;2022-07-29T13:27:33;1.67;;;1.20;;
69087;SDS011;56190;43.562;5.036;2022-07-29T13:30:00;1.63;;;1.20;;
69087;SDS011;56190;43.562;5.036;2022-07-29T13:32:26;2.35;;;1.38;;
69087;SDS011;56190;43.562;5.036;2022-07-29T13:34:52;2.17;;;1.30;;
69087;SDS011;56190;43.562;5.036;2022-07-29T13:37:17;1.77;;;1.20;;
69087;SDS011;56190;43.562;5.036;2022-07-29T13:39:43;1.52;;;1.08;;
69087;SDS011;56190;43.562;5.036;2022-07-29T13:42:08;2.15;;;0.95;;
69087;SDS011;56190;43.562;5.036;2022-07-29T13:44:33;2.05;;;1.00;;
69087;SDS011;56190;43.562;5.036;2022-07-29T13:46:59;1.00;;;0.90;;
69087;SDS011;56190;43.562;5.036;2022-07-29T13:49:24;0.90;;;0.70;;
69087;SDS011;56190;43.562;5.036;2022-07-29T13:51:50;1.00;;;0.90;;
69087;SDS011;56190;43.562;5.036;2022-07-29T13:54:15;1.15;;;0.80;;
69087;SDS011;56190;43.562;5.036;2022-07-29T13:56:40;2.75;;;1.20;;
69087;SDS011;56190;43.562;5.036;2022-07-29T13:59:06;1.23;;;1.13;;
69087;SDS011;56190;43.562;5.036;2022-07-29T14:01:32;1.48;;;1.00;;
69087;SDS011;56190;43.562;5.036;2022-07-29T14:03:58;0.88;;;0.88;;
69087;SDS011;56190;43.562;5.036;2022-07-29T14:06:23;1.52;;;1.00;;
69087;SDS011;56190;43.562;5.036;2022-07-29T14:08:48;1.63;;;0.95;;
69087;SDS011;56190;43.562;5.036;2022-07-29T14:11:13;2.13;;;1.05;;
69087;SDS011;56190;43.562;5.036;2022-07-29T14:13:39;1.15;;;0.90;;
69087;SDS011;56190;43.562;5.036;2022-07-29T14:16:04;1.17;;;0.95;;
69087;SDS011;56190;43.562;5.036;2022-07-29T14:18:29;1.45;;;0.80;;
69087;SDS011;56190;43.562;5.036;2022-07-29T14:20:55;1.00;;;0.90;;
69087;SDS011;56190;43.562;5.036;2022-07-29T14:23:20;1.30;;;1.20;;
69087;SDS011;56190;43.562;5.036;2022-07-29T14:25:45;1.10;;;1.00;;
69087;SDS011;56190;43.562;5.036;2022-07-29T14:28:11;1.88;;;1.10;;
69087;SDS011;56190;43.562;5.036;2022-07-29T14:30:36;2.80;;;1.23;;
69087;SDS011;56190;43.562;5.036;2022-07-29T14:33:01;1.30;;;1.20;;
69087;SDS011;56190;43.562;5.036;2022-07-29T14:35:28;1.42;;;0.88;;
69087;SDS011;56190;43.562;5.036;2022-07-29T14:37:54;2.42;;;1.15;;
69087;SDS011;56190;43.562;5.036;2022-07-29T14:40:19;2.22;;;1.38;;
69087;SDS011;56190;43.562;5.036;2022-07-29T14:42:44;1.20;;;1.00;;
69087;SDS011;56190;43.562;5.036;2022-07-29T14:45:10;1.90;;;1.20;;
69087;SDS011;56190;43.562;5.036;2022-07-29T14:47:36;1.77;;;1.25;;
69087;SDS011;56190;43.562;5.036;2022-07-29T14:50:02;2.42;;;1.10;;
69087;SDS011;56190;43.562;5.036;2022-07-29T14:52:27;1.92;;;1.40;;
69087;SDS011;56190;43.562;5.036;2022-07-29T14:54:52;1.48;;;1.20;;
69087;SDS011;56190;43.562;5.036;2022-07-29T14:57:18;1.63;;;1.10;;
69087;SDS011;56190;43.562;5.036;2022-07-29T14:59:43;1.20;;;1.10;;
69087;SDS011;56190;43.562;5.036;2022-07-29T15:02:08;1.33;;;1.15;;
69087;SDS011;56190;43.562;5.036;2022-07-29T15:04:33;1.40;;;0.98;;
69087;SDS011;56190;43.562;5.036;2022-07-29T15:06:59;1.60;;;1.40;;
69087;SDS011;56190;43.562;5.036;2022-07-29T15:09:24;1.35;;;1.25;;
69087;SDS011;56190;43.562;5.036;2022-07-29T15:11:50;1.95;;;1.35;;
69087;SDS011;56190;43.562;5.036;2022-07-29T15:14:15;1.35;;;1.20;;
69087;SDS011;56190;43.562;5.036;2022-07-29T15:16:40;1.48;;;1.38;;
69087;SDS011;56190;43.562;5.036;2022-07-29T15:19:07;2.15;;;1.33;;
69087;SDS011;56190;43.562;5.036;2022-07-29T15:21:32;2.00;;;1.67;;
69087;SDS011;56190;43.562;5.036;2022-07-29T15:23:57;1.73;;;1.60;;